sensor_id;sensor_type;location;lat;lon;timestamp;pressure;altitude;pressure_sealevel;temperature;humidity
36520;BME280;40269;46.742;9.778;2023-01-31T00:00:05;85975.66;;;-6.70;51.05
36520;BME280;40269;46.742;9.778;2023-01-31T00:02:32;85978.38;;;-6.05;50.64
36520;BME280;40269;46.742;9.778;2023-01-31T00:04:59;85979.28;;;-5.62;49.54
36520;BME280;40269;46.742;9.778;2023-01-31T00:07:25;85979.26;;;-4.99;48.18
36520;BME280;40269;46.742;9.778;2023-01-31T00:09:52;85976.62;;;-4.50;47.79
36520;BME280;40269;46.742;9.778;2023-01-31T00:12:19;85978.14;;;-5.37;49.40
36520;BME280;40269;46.742;9.778;2023-01-31T00:14:46;85978.38;;;-6.99;53.19
36520;BME280;40269;46.742;9.778;2023-01-31T00:17:13;85982.08;;;-7.36;55.32
36520;BME280;40269;46.742;9.778;2023-01-31T00:19:40;85981.70;;;-6.73;53.16
36520;BME280;40269;46.742;9.778;2023-01-31T00:22:06;85974.22;;;-6.32;52.83
36520;BME280;40269;46.742;9.778;2023-01-31T00:24:33;85976.49;;;-6.58;52.05
36520;BME280;40269;46.742;9.778;2023-01-31T00:27:00;85978.11;;;-5.53;51.00
36520;BME280;40269;46.742;9.778;2023-01-31T00:29:27;85984.79;;;-4.53;48.48
36520;BME280;40269;46.742;9.778;2023-01-31T00:31:54;85984.96;;;-4.35;47.90
36520;BME280;40269;46.742;9.778;2023-01-31T00:34:21;85981.38;;;-4.28;46.42
36520;BME280;40269;46.742;9.778;2023-01-31T00:36:48;85980.36;;;-4.20;47.94
36520;BME280;40269;46.742;9.778;2023-01-31T00:39:14;85974.42;;;-3.71;45.64
36520;BME280;40269;46.742;9.778;2023-01-31T00:41:41;85967.93;;;-3.41;44.08
36520;BME280;40269;46.742;9.778;2023-01-31T00:44:08;85967.42;;;-4.91;47.94
36520;BME280;40269;46.742;9.778;2023-01-31T00:46:35;85968.20;;;-4.50;46.04
36520;BME280;40269;46.742;9.778;2023-01-31T00:49:02;85972.32;;;-4.22;45.84
36520;BME280;40269;46.742;9.778;2023-01-31T00:51:30;85966.00;;;-2.73;42.29
36520;BME280;40269;46.742;9.778;2023-01-31T00:53:57;85972.82;;;-3.66;45.27
36520;BME280;40269;46.742;9.778;2023-01-31T00:56:24;85979.97;;;-3.74;45.13
36520;BME280;40269;46.742;9.778;2023-01-31T00:58:52;85981.64;;;-5.41;47.40
36520;BME280;40269;46.742;9.778;2023-01-31T01:01:21;85978.50;;;-4.45;46.17
36520;BME280;40269;46.742;9.778;2023-01-31T01:03:49;85977.90;;;-3.84;44.51
36520;BME280;40269;46.742;9.778;2023-01-31T01:06:16;85969.65;;;-5.46;47.52
36520;BME280;40269;46.742;9.778;2023-01-31T01:08:44;85972.00;;;-4.68;47.43
36520;BME280;40269;46.742;9.778;2023-01-31T01:11:14;85968.60;;;-4.07;46.60
36520;BME280;40269;46.742;9.778;2023-01-31T01:13:41;85974.91;;;-3.51;44.42
36520;BME280;40269;46.742;9.778;2023-01-31T01:16:12;85975.24;;;-3.80;44.54
36520;BME280;40269;46.742;9.778;2023-01-31T01:18:39;85970.42;;;-4.68;46.66
36520;BME280;40269;46.742;9.778;2023-01-31T01:21:08;85966.40;;;-7.12;54.33
36520;BME280;40269;46.742;9.778;2023-01-31T01:23:35;85965.82;;;-5.71;50.04
36520;BME280;40269;46.742;9.778;2023-01-31T01:26:03;85967.49;;;-4.73;48.16
36520;BME280;40269;46.742;9.778;2023-01-31T01:28:32;85970.79;;;-5.66;47.79
36520;BME280;40269;46.742;9.778;2023-01-31T01:31:03;85967.63;;;-4.78;47.59
36520;BME280;40269;46.742;9.778;2023-01-31T01:33:31;85963.51;;;-6.57;50.04
36520;BME280;40269;46.742;9.778;2023-01-31T01:35:59;85968.38;;;-5.71;47.22
36520;BME280;40269;46.742;9.778;2023-01-31T01:38:27;85972.90;;;-4.31;45.20
36520;BME280;40269;46.742;9.778;2023-01-31T01:40:53;85977.55;;;-3.62;44.52
36520;BME280;40269;46.742;9.778;2023-01-31T01:43:20;85980.14;;;-4.16;45.17
36520;BME280;40269;46.742;9.778;2023-01-31T01:45:47;85986.10;;;-3.83;44.92
36520;BME280;40269;46.742;9.778;2023-01-31T01:48:16;85984.19;;;-7.51;54.81
36520;BME280;40269;46.742;9.778;2023-01-31T01:50:46;85984.82;;;-8.18;58.16
36520;BME280;40269;46.742;9.778;2023-01-31T01:53:17;85981.62;;;-6.91;54.40
36520;BME280;40269;46.742;9.778;2023-01-31T01:55:49;85981.29;;;-6.37;52.75
36520;BME280;40269;46.742;9.778;2023-01-31T01:58:19;85982.85;;;-6.91;54.58
36520;BME280;40269;46.742;9.778;2023-01-31T02:00:49;85978.51;;;-4.01;47.06
36520;BME280;40269;46.742;9.778;2023-01-31T02:03:17;85979.08;;;-3.78;45.97
36520;BME280;40269;46.742;9.778;2023-01-31T02:05:46;85976.81;;;-3.57;44.69
36520;BME280;40269;46.742;9.778;2023-01-31T02:08:17;85970.49;;;-2.53;41.71
36520;BME280;40269;46.742;9.778;2023-01-31T02:10:48;85968.71;;;-1.65;39.89
36520;BME280;40269;46.742;9.778;2023-01-31T02:13:15;85970.80;;;-6.08;50.02
36520;BME280;40269;46.742;9.778;2023-01-31T02:15:43;85965.23;;;-2.84;43.82
36520;BME280;40269;46.742;9.778;2023-01-31T02:18:10;85976.30;;;-4.56;45.94
36520;BME280;40269;46.742;9.778;2023-01-31T02:21:12;85977.62;;;-4.96;46.72
36520;BME280;40269;46.742;9.778;2023-01-31T02:24:05;85976.04;;;-3.51;43.93
36520;BME280;40269;46.742;9.778;2023-01-31T02:27:28;85972.81;;;-1.77;40.81
36520;BME280;40269;46.742;9.778;2023-01-31T02:30:18;85965.69;;;-0.42;37.67
36520;BME280;40269;46.742;9.778;2023-01-31T02:32:57;85965.15;;;-1.06;37.78
36520;BME280;40269;46.742;9.778;2023-01-31T02:35:37;85968.85;;;-1.08;37.51
36520;BME280;40269;46.742;9.778;2023-01-31T02:38:12;85973.89;;;-1.65;38.38
36520;BME280;40269;46.742;9.778;2023-01-31T02:40:48;85975.73;;;-2.49;40.38
36520;BME280;40269;46.742;9.778;2023-01-31T02:43:21;85977.61;;;-4.33;44.25
36520;BME280;40269;46.742;9.778;2023-01-31T02:45:58;85977.42;;;-4.00;43.91
36520;BME280;40269;46.742;9.778;2023-01-31T02:48:34;85974.94;;;-2.59;41.41
36520;BME280;40269;46.742;9.778;2023-01-31T02:51:13;85972.24;;;-2.29;39.89
36520;BME280;40269;46.742;9.778;2023-01-31T02:53:44;85973.53;;;-1.08;38.05
36520;BME280;40269;46.742;9.778;2023-01-31T02:56:17;85978.65;;;-5.78;46.22
36520;BME280;40269;46.742;9.778;2023-01-31T02:58:50;85978.02;;;-4.83;46.42
36520;BME280;40269;46.742;9.778;2023-01-31T03:01:23;85977.82;;;-5.43;45.67
36520;BME280;40269;46.742;9.778;2023-01-31T03:03:52;85979.13;;;-6.50;48.96
36520;BME280;40269;46.742;9.778;2023-01-31T03:07:24;85978.94;;;-7.59;51.20
36520;BME280;40269;46.742;9.778;2023-01-31T03:10:02;85973.18;;;-4.27;43.61
36520;BME280;40269;46.742;9.778;2023-01-31T03:12:42;85976.01;;;-4.30;43.83
36520;BME280;40269;46.742;9.778;2023-01-31T03:15:34;85978.27;;;-4.50;42.70
36520;BME280;40269;46.742;9.778;2023-01-31T03:18:07;85987.83;;;-7.12;49.17
36520;BME280;40269;46.742;9.778;2023-01-31T03:20:40;85995.51;;;-6.49;49.84
36520;BME280;40269;46.742;9.778;2023-01-31T03:23:15;85998.23;;;-4.06;43.81
36520;BME280;40269;46.742;9.778;2023-01-31T03:25:44;86004.98;;;-3.27;41.73
36520;BME280;40269;46.742;9.778;2023-01-31T03:28:13;86008.68;;;-4.28;42.95
36520;BME280;40269;46.742;9.778;2023-01-31T03:30:46;86011.79;;;-4.50;42.67
36520;BME280;40269;46.742;9.778;2023-01-31T03:33:18;86008.52;;;-3.02;40.18
36520;BME280;40269;46.742;9.778;2023-01-31T03:35:51;86018.18;;;-3.61;41.40
36520;BME280;40269;46.742;9.778;2023-01-31T03:38:25;86026.45;;;-4.72;43.21
36520;BME280;40269;46.742;9.778;2023-01-31T03:40:56;86028.11;;;-4.46;43.82
36520;BME280;40269;46.742;9.778;2023-01-31T03:43:27;86030.02;;;-8.15;50.37
36520;BME280;40269;46.742;9.778;2023-01-31T03:45:59;86025.65;;;-5.40;44.64
36520;BME280;40269;46.742;9.778;2023-01-31T03:48:30;86027.63;;;-5.10;44.15
36520;BME280;40269;46.742;9.778;2023-01-31T03:51:02;86031.75;;;-3.07;39.94
36520;BME280;40269;46.742;9.778;2023-01-31T03:53:33;86032.19;;;-8.12;49.81
36520;BME280;40269;46.742;9.778;2023-01-31T03:56:05;86033.35;;;-4.87;44.71
36520;BME280;40269;46.742;9.778;2023-01-31T03:58:39;86032.77;;;-5.68;43.33
36520;BME280;40269;46.742;9.778;2023-01-31T04:01:09;86031.67;;;-2.96;39.96
36520;BME280;40269;46.742;9.778;2023-01-31T04:03:40;86026.58;;;-2.75;38.11
36520;BME280;40269;46.742;9.778;2023-01-31T04:06:09;86039.23;;;-4.90;41.47
36520;BME280;40269;46.742;9.778;2023-01-31T04:08:37;86037.79;;;-4.52;41.61
36520;BME280;40269;46.742;9.778;2023-01-31T04:11:07;86034.70;;;-2.81;38.77
36520;BME280;40269;46.742;9.778;2023-01-31T04:13:35;86035.37;;;-5.60;42.19
36520;BME280;40269;46.742;9.778;2023-01-31T04:16:03;86046.58;;;-8.47;50.14
36520;BME280;40269;46.742;9.778;2023-01-31T04:18:30;86043.81;;;-5.41;44.16
36520;BME280;40269;46.742;9.778;2023-01-31T04:20:58;86038.11;;;-5.73;43.12
36520;BME280;40269;46.742;9.778;2023-01-31T04:23:25;86033.91;;;-3.80;39.53
36520;BME280;40269;46.742;9.778;2023-01-31T04:25:52;86034.23;;;-3.82;38.68
36520;BME280;40269;46.742;9.778;2023-01-31T04:28:19;86034.06;;;-3.45;37.48
36520;BME280;40269;46.742;9.778;2023-01-31T04:30:51;86035.58;;;-3.50;36.33
36520;BME280;40269;46.742;9.778;2023-01-31T04:33:18;86041.13;;;-6.21;40.70
36520;BME280;40269;46.742;9.778;2023-01-31T04:35:45;86040.80;;;-7.01;41.75
36520;BME280;40269;46.742;9.778;2023-01-31T04:38:12;86042.43;;;-4.41;37.94
36520;BME280;40269;46.742;9.778;2023-01-31T04:40:39;86046.56;;;-6.38;40.38
36520;BME280;40269;46.742;9.778;2023-01-31T04:43:06;86039.30;;;-5.16;38.42
36520;BME280;40269;46.742;9.778;2023-01-31T04:45:33;86040.44;;;-6.91;42.55
36520;BME280;40269;46.742;9.778;2023-01-31T04:48:00;86042.72;;;-6.50;41.62
36520;BME280;40269;46.742;9.778;2023-01-31T04:50:27;86052.06;;;-8.11;44.18
36520;BME280;40269;46.742;9.778;2023-01-31T04:52:54;86051.70;;;-8.68;44.19
36520;BME280;40269;46.742;9.778;2023-01-31T04:55:21;86058.11;;;-7.41;43.43
36520;BME280;40269;46.742;9.778;2023-01-31T04:57:48;86067.97;;;-9.70;48.74
36520;BME280;40269;46.742;9.778;2023-01-31T05:00:17;86066.97;;;-7.04;42.74
36520;BME280;40269;46.742;9.778;2023-01-31T05:02:44;86076.70;;;-5.70;39.78
36520;BME280;40269;46.742;9.778;2023-01-31T05:05:11;86080.49;;;-7.04;41.89
36520;BME280;40269;46.742;9.778;2023-01-31T05:07:38;86083.10;;;-6.79;40.37
36520;BME280;40269;46.742;9.778;2023-01-31T05:10:07;86089.38;;;-10.83;49.82
36520;BME280;40269;46.742;9.778;2023-01-31T05:12:35;86091.98;;;-10.86;51.79
36520;BME280;40269;46.742;9.778;2023-01-31T05:15:03;86094.87;;;-10.21;50.83
36520;BME280;40269;46.742;9.778;2023-01-31T05:17:30;86101.87;;;-10.57;51.65
36520;BME280;40269;46.742;9.778;2023-01-31T05:19:58;86103.15;;;-9.51;48.47
36520;BME280;40269;46.742;9.778;2023-01-31T05:22:26;86099.41;;;-8.80;46.20
36520;BME280;40269;46.742;9.778;2023-01-31T05:24:53;86100.28;;;-8.61;44.88
36520;BME280;40269;46.742;9.778;2023-01-31T05:27:20;86109.59;;;-10.58;50.23
36520;BME280;40269;46.742;9.778;2023-01-31T05:29:47;86111.88;;;-8.39;44.51
36520;BME280;40269;46.742;9.778;2023-01-31T05:32:15;86105.23;;;-6.43;39.83
36520;BME280;40269;46.742;9.778;2023-01-31T05:34:42;86111.67;;;-8.61;45.27
36520;BME280;40269;46.742;9.778;2023-01-31T05:37:09;86109.13;;;-7.08;41.99
36520;BME280;40269;46.742;9.778;2023-01-31T05:39:36;86108.77;;;-7.16;41.67
36520;BME280;40269;46.742;9.778;2023-01-31T05:42:03;86107.77;;;-6.24;39.56
36520;BME280;40269;46.742;9.778;2023-01-31T05:44:30;86110.99;;;-6.57;38.60
36520;BME280;40269;46.742;9.778;2023-01-31T05:46:58;86121.00;;;-7.71;41.43
36520;BME280;40269;46.742;9.778;2023-01-31T05:49:25;86122.76;;;-7.48;42.41
36520;BME280;40269;46.742;9.778;2023-01-31T05:51:52;86123.82;;;-8.06;43.66
36520;BME280;40269;46.742;9.778;2023-01-31T05:54:19;86121.95;;;-7.02;42.22
36520;BME280;40269;46.742;9.778;2023-01-31T05:56:46;86134.84;;;-8.06;42.40
36520;BME280;40269;46.742;9.778;2023-01-31T05:59:13;86129.86;;;-6.29;39.77
36520;BME280;40269;46.742;9.778;2023-01-31T06:01:40;86126.57;;;-6.11;38.17
36520;BME280;40269;46.742;9.778;2023-01-31T06:04:09;86124.89;;;-6.28;38.45
36520;BME280;40269;46.742;9.778;2023-01-31T06:06:36;86134.56;;;-5.69;36.47
36520;BME280;40269;46.742;9.778;2023-01-31T06:09:03;86134.97;;;-5.90;37.63
36520;BME280;40269;46.742;9.778;2023-01-31T06:11:30;86134.21;;;-5.38;36.43
36520;BME280;40269;46.742;9.778;2023-01-31T06:13:58;86145.22;;;-8.26;42.38
36520;BME280;40269;46.742;9.778;2023-01-31T06:16:25;86146.39;;;-10.12;45.79
36520;BME280;40269;46.742;9.778;2023-01-31T06:18:52;86148.50;;;-9.77;45.74
36520;BME280;40269;46.742;9.778;2023-01-31T06:21:19;86150.29;;;-7.27;40.16
36520;BME280;40269;46.742;9.778;2023-01-31T06:23:46;86147.64;;;-8.13;41.31
36520;BME280;40269;46.742;9.778;2023-01-31T06:26:13;86148.50;;;-7.43;39.90
36520;BME280;40269;46.742;9.778;2023-01-31T06:28:40;86151.86;;;-8.55;41.32
36520;BME280;40269;46.742;9.778;2023-01-31T06:31:07;86152.02;;;-8.43;41.53
36520;BME280;40269;46.742;9.778;2023-01-31T06:33:34;86155.90;;;-11.23;48.18
36520;BME280;40269;46.742;9.778;2023-01-31T06:36:02;86154.40;;;-9.23;44.06
36520;BME280;40269;46.742;9.778;2023-01-31T06:38:30;86149.27;;;-9.37;44.19
36520;BME280;40269;46.742;9.778;2023-01-31T06:40:57;86151.57;;;-9.28;43.30
36520;BME280;40269;46.742;9.778;2023-01-31T06:43:24;86150.61;;;-7.96;42.05
36520;BME280;40269;46.742;9.778;2023-01-31T06:45:52;86155.88;;;-10.31;44.96
36520;BME280;40269;46.742;9.778;2023-01-31T06:48:19;86148.80;;;-7.63;39.96
36520;BME280;40269;46.742;9.778;2023-01-31T06:50:46;86153.38;;;-8.24;40.70
36520;BME280;40269;46.742;9.778;2023-01-31T06:53:13;86151.18;;;-7.48;39.35
36520;BME280;40269;46.742;9.778;2023-01-31T06:55:40;86153.66;;;-7.45;38.53
36520;BME280;40269;46.742;9.778;2023-01-31T06:58:07;86158.76;;;-9.12;41.18
36520;BME280;40269;46.742;9.778;2023-01-31T07:00:34;86163.62;;;-10.67;45.39
36520;BME280;40269;46.742;9.778;2023-01-31T07:03:01;86164.26;;;-8.20;40.26
36520;BME280;40269;46.742;9.778;2023-01-31T07:05:28;86165.68;;;-8.99;42.13
36520;BME280;40269;46.742;9.778;2023-01-31T07:07:55;86174.15;;;-11.57;47.00
36520;BME280;40269;46.742;9.778;2023-01-31T07:10:22;86188.13;;;-13.71;52.65
36520;BME280;40269;46.742;9.778;2023-01-31T07:12:49;86185.13;;;-11.57;50.12
36520;BME280;40269;46.742;9.778;2023-01-31T07:15:16;86188.64;;;-11.56;49.66
36520;BME280;40269;46.742;9.778;2023-01-31T07:17:43;86190.68;;;-10.75;47.25
36520;BME280;40269;46.742;9.778;2023-01-31T07:20:11;86194.10;;;-11.72;49.77
36520;BME280;40269;46.742;9.778;2023-01-31T07:22:38;86197.70;;;-9.68;44.37
36520;BME280;40269;46.742;9.778;2023-01-31T07:25:07;86202.55;;;-11.57;47.54
36520;BME280;40269;46.742;9.778;2023-01-31T07:27:34;86201.56;;;-10.42;45.39
36520;BME280;40269;46.742;9.778;2023-01-31T07:30:01;86201.40;;;-10.54;46.23
36520;BME280;40269;46.742;9.778;2023-01-31T07:32:29;86203.80;;;-9.82;44.51
36520;BME280;40269;46.742;9.778;2023-01-31T07:34:56;86204.30;;;-9.68;44.75
36520;BME280;40269;46.742;9.778;2023-01-31T07:37:23;86205.49;;;-8.61;41.76
36520;BME280;40269;46.742;9.778;2023-01-31T07:39:50;86211.53;;;-8.12;40.61
36520;BME280;40269;46.742;9.778;2023-01-31T07:42:17;86215.26;;;-11.36;46.29
36520;BME280;40269;46.742;9.778;2023-01-31T07:44:44;86220.82;;;-12.56;50.49
36520;BME280;40269;46.742;9.778;2023-01-31T07:47:12;86213.18;;;-11.21;46.54
36520;BME280;40269;46.742;9.778;2023-01-31T07:49:39;86213.72;;;-13.33;52.08
36520;BME280;40269;46.742;9.778;2023-01-31T07:52:06;86211.51;;;-12.96;52.66
36520;BME280;40269;46.742;9.778;2023-01-31T07:54:33;86212.88;;;-12.67;50.76
36520;BME280;40269;46.742;9.778;2023-01-31T07:57:00;86210.58;;;-10.81;46.02
36520;BME280;40269;46.742;9.778;2023-01-31T07:59:27;86215.18;;;-11.32;47.77
36520;BME280;40269;46.742;9.778;2023-01-31T08:01:54;86212.23;;;-10.71;45.60
36520;BME280;40269;46.742;9.778;2023-01-31T08:04:22;86213.22;;;-7.83;39.84
36520;BME280;40269;46.742;9.778;2023-01-31T08:06:52;86217.29;;;-7.84;38.32
36520;BME280;40269;46.742;9.778;2023-01-31T08:09:20;86221.64;;;-8.43;39.90
36520;BME280;40269;46.742;9.778;2023-01-31T08:11:47;86224.08;;;-8.40;38.47
36520;BME280;40269;46.742;9.778;2023-01-31T08:14:13;86225.68;;;-10.33;41.74
36520;BME280;40269;46.742;9.778;2023-01-31T08:16:41;86222.71;;;-9.43;41.20
36520;BME280;40269;46.742;9.778;2023-01-31T08:19:08;86222.17;;;-9.89;42.07
36520;BME280;40269;46.742;9.778;2023-01-31T08:21:35;86228.60;;;-12.64;48.50
36520;BME280;40269;46.742;9.778;2023-01-31T08:24:02;86229.66;;;-13.15;49.04
36520;BME280;40269;46.742;9.778;2023-01-31T08:26:30;86222.26;;;-10.31;43.63
36520;BME280;40269;46.742;9.778;2023-01-31T08:28:57;86223.76;;;-9.53;41.04
36520;BME280;40269;46.742;9.778;2023-01-31T08:31:25;86214.24;;;-8.88;40.03
36520;BME280;40269;46.742;9.778;2023-01-31T08:33:52;86217.26;;;-8.18;38.05
36520;BME280;40269;46.742;9.778;2023-01-31T08:36:22;86216.91;;;-7.78;37.72
36520;BME280;40269;46.742;9.778;2023-01-31T08:38:49;86215.38;;;-10.16;41.53
36520;BME280;40269;46.742;9.778;2023-01-31T08:41:20;86218.12;;;-9.71;40.92
36520;BME280;40269;46.742;9.778;2023-01-31T08:43:47;86220.34;;;-8.83;39.76
36520;BME280;40269;46.742;9.778;2023-01-31T08:46:14;86226.07;;;-10.59;42.63
36520;BME280;40269;46.742;9.778;2023-01-31T08:48:41;86226.29;;;-8.76;38.40
36520;BME280;40269;46.742;9.778;2023-01-31T08:51:10;86223.50;;;-10.15;40.93
36520;BME280;40269;46.742;9.778;2023-01-31T08:53:38;86223.87;;;-12.35;46.45
36520;BME280;40269;46.742;9.778;2023-01-31T08:56:07;86220.99;;;-11.00;43.47
36520;BME280;40269;46.742;9.778;2023-01-31T08:58:36;86221.54;;;-9.06;40.89
36520;BME280;40269;46.742;9.778;2023-01-31T09:01:05;86220.55;;;-7.28;38.04
36520;BME280;40269;46.742;9.778;2023-01-31T09:03:32;86219.83;;;-8.37;38.78
36520;BME280;40269;46.742;9.778;2023-01-31T09:06:00;86218.33;;;-7.12;37.61
36520;BME280;40269;46.742;9.778;2023-01-31T09:08:28;86214.11;;;-7.25;37.27
36520;BME280;40269;46.742;9.778;2023-01-31T09:10:56;86213.00;;;-7.26;37.27
36520;BME280;40269;46.742;9.778;2023-01-31T09:13:23;86212.63;;;-6.79;36.26
36520;BME280;40269;46.742;9.778;2023-01-31T09:15:57;86213.93;;;-7.31;36.43
36520;BME280;40269;46.742;9.778;2023-01-31T09:18:23;86210.39;;;-6.24;35.52
36520;BME280;40269;46.742;9.778;2023-01-31T09:20:50;86210.56;;;-7.39;36.86
36520;BME280;40269;46.742;9.778;2023-01-31T09:23:18;86214.64;;;-10.15;41.83
36520;BME280;40269;46.742;9.778;2023-01-31T09:25:51;86214.69;;;-8.89;42.30
36520;BME280;40269;46.742;9.778;2023-01-31T09:28:18;86213.20;;;-5.77;38.13
36520;BME280;40269;46.742;9.778;2023-01-31T09:30:45;86214.45;;;-4.09;35.81
36520;BME280;40269;46.742;9.778;2023-01-31T09:33:12;86218.69;;;-6.78;42.22
36520;BME280;40269;46.742;9.778;2023-01-31T09:35:39;86216.90;;;-4.20;38.20
36520;BME280;40269;46.742;9.778;2023-01-31T09:38:06;86218.75;;;-3.91;37.33
36520;BME280;40269;46.742;9.778;2023-01-31T09:40:36;86222.33;;;-4.60;37.74
36520;BME280;40269;46.742;9.778;2023-01-31T09:43:04;86219.55;;;-1.27;32.88
36520;BME280;40269;46.742;9.778;2023-01-31T09:45:35;86215.93;;;-1.00;31.67
36520;BME280;40269;46.742;9.778;2023-01-31T09:48:05;86221.27;;;-2.08;33.08
36520;BME280;40269;46.742;9.778;2023-01-31T09:50:36;86219.48;;;-0.70;30.71
36520;BME280;40269;46.742;9.778;2023-01-31T09:53:09;86218.54;;;0.05;29.01
36520;BME280;40269;46.742;9.778;2023-01-31T09:55:43;86219.16;;;-0.58;30.01
36520;BME280;40269;46.742;9.778;2023-01-31T09:58:18;86220.02;;;1.93;27.13
36520;BME280;40269;46.742;9.778;2023-01-31T10:00:59;86214.99;;;3.33;25.06
36520;BME280;40269;46.742;9.778;2023-01-31T10:03:38;86215.82;;;0.92;26.55
36520;BME280;40269;46.742;9.778;2023-01-31T10:06:16;86216.95;;;-0.17;30.22
36520;BME280;40269;46.742;9.778;2023-01-31T10:08:51;86214.10;;;-0.72;30.07
36520;BME280;40269;46.742;9.778;2023-01-31T10:11:30;86210.44;;;0.80;28.62
36520;BME280;40269;46.742;9.778;2023-01-31T10:14:17;86207.36;;;2.41;25.57
36520;BME280;40269;46.742;9.778;2023-01-31T10:16:55;86208.75;;;1.11;27.29
36520;BME280;40269;46.742;9.778;2023-01-31T10:19:27;86199.64;;;1.68;27.31
36520;BME280;40269;46.742;9.778;2023-01-31T10:21:59;86197.97;;;2.56;25.94
36520;BME280;40269;46.742;9.778;2023-01-31T10:24:34;86196.15;;;0.26;27.84
36520;BME280;40269;46.742;9.778;2023-01-31T10:27:06;86195.69;;;1.92;25.27
36520;BME280;40269;46.742;9.778;2023-01-31T10:29:40;86197.02;;;2.83;24.71
36520;BME280;40269;46.742;9.778;2023-01-31T10:32:14;86189.92;;;4.50;23.79
36520;BME280;40269;46.742;9.778;2023-01-31T10:34:49;86189.64;;;5.12;21.77
36520;BME280;40269;46.742;9.778;2023-01-31T10:37:26;86189.07;;;5.03;22.61
36520;BME280;40269;46.742;9.778;2023-01-31T10:39:58;86187.02;;;6.15;20.84
36520;BME280;40269;46.742;9.778;2023-01-31T10:42:31;86185.95;;;4.61;23.07
36520;BME280;40269;46.742;9.778;2023-01-31T10:45:02;86185.72;;;5.28;22.90
36520;BME280;40269;46.742;9.778;2023-01-31T10:47:32;86188.27;;;6.16;23.69
36520;BME280;40269;46.742;9.778;2023-01-31T10:50:02;86183.37;;;6.52;22.53
36520;BME280;40269;46.742;9.778;2023-01-31T10:52:47;86179.90;;;6.49;21.45
36520;BME280;40269;46.742;9.778;2023-01-31T10:55:27;86177.94;;;5.45;23.32
36520;BME280;40269;46.742;9.778;2023-01-31T10:57:58;86174.43;;;4.91;24.19
36520;BME280;40269;46.742;9.778;2023-01-31T11:00:27;86165.74;;;4.17;25.38
36520;BME280;40269;46.742;9.778;2023-01-31T11:02:56;86161.98;;;5.92;21.67
36520;BME280;40269;46.742;9.778;2023-01-31T11:05:26;86157.82;;;7.83;21.36
36520;BME280;40269;46.742;9.778;2023-01-31T11:07:55;86148.10;;;9.40;17.81
36520;BME280;40269;46.742;9.778;2023-01-31T11:10:25;86148.64;;;8.28;20.96
36520;BME280;40269;46.742;9.778;2023-01-31T11:12:54;86153.62;;;1.79;24.27
36520;BME280;40269;46.742;9.778;2023-01-31T11:15:23;86142.63;;;4.61;24.24
36520;BME280;40269;46.742;9.778;2023-01-31T11:17:52;86135.45;;;5.30;23.78
36520;BME280;40269;46.742;9.778;2023-01-31T11:20:24;86136.69;;;6.23;21.68
36520;BME280;40269;46.742;9.778;2023-01-31T11:22:52;86130.13;;;4.70;22.71
36520;BME280;40269;46.742;9.778;2023-01-31T11:25:21;86125.87;;;4.30;23.47
36520;BME280;40269;46.742;9.778;2023-01-31T11:27:51;86117.02;;;2.62;24.30
36520;BME280;40269;46.742;9.778;2023-01-31T11:30:21;86123.32;;;0.92;27.17
36520;BME280;40269;46.742;9.778;2023-01-31T11:32:49;86123.44;;;1.17;26.42
36520;BME280;40269;46.742;9.778;2023-01-31T11:35:27;86115.05;;;3.87;24.13
36520;BME280;40269;46.742;9.778;2023-01-31T11:37:56;86113.52;;;3.08;25.42
36520;BME280;40269;46.742;9.778;2023-01-31T11:40:28;86118.98;;;1.69;26.99
36520;BME280;40269;46.742;9.778;2023-01-31T11:42:57;86115.71;;;2.21;26.00
36520;BME280;40269;46.742;9.778;2023-01-31T11:45:27;86113.47;;;1.47;26.47
36520;BME280;40269;46.742;9.778;2023-01-31T11:47:57;86104.15;;;3.10;25.17
36520;BME280;40269;46.742;9.778;2023-01-31T11:50:31;86104.54;;;6.13;22.90
36520;BME280;40269;46.742;9.778;2023-01-31T11:53:00;86100.61;;;5.02;22.08
36520;BME280;40269;46.742;9.778;2023-01-31T11:55:35;86102.82;;;2.45;26.79
36520;BME280;40269;46.742;9.778;2023-01-31T11:58:16;86101.43;;;3.93;24.53
36520;BME280;40269;46.742;9.778;2023-01-31T12:00:52;86101.70;;;3.98;24.44
36520;BME280;40269;46.742;9.778;2023-01-31T12:03:20;86099.79;;;2.43;25.13
36520;BME280;40269;46.742;9.778;2023-01-31T12:05:51;86099.70;;;2.82;25.43
36520;BME280;40269;46.742;9.778;2023-01-31T12:08:28;86095.87;;;6.22;25.24
36520;BME280;40269;46.742;9.778;2023-01-31T12:10:56;86089.72;;;3.93;26.37
36520;BME280;40269;46.742;9.778;2023-01-31T12:13:24;86083.77;;;2.93;26.47
36520;BME280;40269;46.742;9.778;2023-01-31T12:15:56;86078.91;;;4.80;25.01
36520;BME280;40269;46.742;9.778;2023-01-31T12:18:40;86078.71;;;4.98;24.13
36520;BME280;40269;46.742;9.778;2023-01-31T12:21:14;86078.89;;;7.67;21.41
36520;BME280;40269;46.742;9.778;2023-01-31T12:23:51;86072.98;;;7.40;21.16
36520;BME280;40269;46.742;9.778;2023-01-31T12:26:30;86076.89;;;6.84;22.76
36520;BME280;40269;46.742;9.778;2023-01-31T12:29:13;86069.13;;;7.78;22.23
36520;BME280;40269;46.742;9.778;2023-01-31T12:31:54;86062.41;;;4.32;22.55
36520;BME280;40269;46.742;9.778;2023-01-31T12:34:34;86060.55;;;2.26;25.02
36520;BME280;40269;46.742;9.778;2023-01-31T12:37:15;86059.89;;;3.50;24.15
36520;BME280;40269;46.742;9.778;2023-01-31T12:39:54;86060.24;;;4.65;23.64
36520;BME280;40269;46.742;9.778;2023-01-31T12:42:38;86061.77;;;2.44;23.74
36520;BME280;40269;46.742;9.778;2023-01-31T12:45:22;86053.92;;;4.65;23.40
36520;BME280;40269;46.742;9.778;2023-01-31T12:48:08;86057.12;;;0.18;25.58
36520;BME280;40269;46.742;9.778;2023-01-31T12:50:44;86058.99;;;1.30;25.40
36520;BME280;40269;46.742;9.778;2023-01-31T12:53:42;86060.85;;;0.47;26.45
36520;BME280;40269;46.742;9.778;2023-01-31T12:56:25;86055.96;;;-0.07;26.64
36520;BME280;40269;46.742;9.778;2023-01-31T12:59:02;86053.85;;;-0.10;27.28
36520;BME280;40269;46.742;9.778;2023-01-31T13:01:36;86047.82;;;-1.56;29.80
36520;BME280;40269;46.742;9.778;2023-01-31T13:04:21;86049.91;;;-1.50;29.74
36520;BME280;40269;46.742;9.778;2023-01-31T13:06:56;86049.44;;;-1.38;31.34
36520;BME280;40269;46.742;9.778;2023-01-31T13:09:27;86050.60;;;-2.49;33.49
36520;BME280;40269;46.742;9.778;2023-01-31T13:11:59;86046.49;;;-1.82;33.26
36520;BME280;40269;46.742;9.778;2023-01-31T13:14:32;86043.94;;;-1.76;32.32
36520;BME280;40269;46.742;9.778;2023-01-31T13:17:05;86046.35;;;-2.60;33.03
36520;BME280;40269;46.742;9.778;2023-01-31T13:19:40;86044.22;;;-3.19;33.65